Time;durP1;ratioP1;P1;durP2;ratioP2;P2;SDS_P1;SDS_P2;PMS_P1;PMS_P2;Temp;Humidity;BMP_temperature;BMP_pressure;BME280_temperature;BME280_humidity;BME280_pressure;Samples;Min_cycle;Max_cycle;Signal;HPM_P1;HPM_P2
2022/11/30 00:01:55;;;;;;;25.42;11.27;;;8.30;99.90;;;;;;5029438;28;20022;-68
2022/11/30 00:04:20;;;;;;;32.22;11.75;;;8.30;99.90;;;;;;5013985;28;20028;-68
2022/11/30 00:06:46;;;;;;;35.05;10.85;;;8.40;99.90;;;;;;5029853;28;20033;-68
2022/11/30 00:09:12;;;;;;;27.05;10.70;;;8.30;99.90;;;;;;5029376;28;20022;-69
2022/11/30 00:11:37;;;;;;;31.25;10.65;;;8.30;99.90;;;;;;5029554;28;20037;-69
2022/11/30 00:14:03;;;;;;;30.00;11.45;;;8.40;99.90;;;;;;5013041;28;20026;-69
2022/11/30 00:16:28;;;;;;;25.25;10.38;;;8.40;99.90;;;;;;5029173;28;20033;-68
2022/11/30 00:18:54;;;;;;;35.78;10.98;;;8.40;99.90;;;;;;5014260;28;20028;-68
2022/11/30 00:21:20;;;;;;;29.02;11.75;;;8.40;99.90;;;;;;5029203;28;20020;-68
2022/11/30 00:23:46;;;;;;;29.90;11.10;;;8.40;99.90;;;;;;5029051;28;20437;-68
2022/11/30 00:26:15;;;;;;;29.67;13.05;;;8.30;99.90;;;;;;5014048;28;20049;-68
2022/11/30 00:28:42;;;;;;;31.25;11.57;;;8.30;99.90;;;;;;5029416;28;20025;-68
2022/11/30 00:31:13;;;;;;;31.88;11.35;;;8.30;99.90;;;;;;5029181;28;20072;-68
2022/11/30 00:33:39;;;;;;;25.80;10.45;;;8.30;99.90;;;;;;5029046;28;20041;-69
2022/11/30 00:36:07;;;;;;;32.47;11.68;;;8.30;99.90;;;;;;5029881;28;20025;-69
2022/11/30 00:38:33;;;;;;;27.67;10.80;;;8.40;99.90;;;;;;5014262;28;20110;-69
2022/11/30 00:41:00;;;;;;;35.03;11.30;;;8.40;99.90;;;;;;5012964;28;20038;-69
2022/11/30 00:43:26;;;;;;;32.33;10.88;;;8.50;99.90;;;;;;5014063;28;20068;-69
2022/11/30 00:45:52;;;;;;;31.70;11.45;;;8.50;99.90;;;;;;5029324;28;20014;-69
2022/11/30 00:48:17;;;;;;;32.67;12.45;;;8.50;99.90;;;;;;5029048;28;20029;-69
2022/11/30 00:50:43;;;;;;;29.58;11.63;;;8.60;99.90;;;;;;5014199;28;20034;-66
2022/11/30 00:53:09;;;;;;;29.70;10.52;;;8.60;99.90;;;;;;5029348;28;20168;-66
2022/11/30 00:55:34;;;;;;;31.77;12.23;;;8.70;99.90;;;;;;5028943;28;20033;-66
2022/11/30 00:58:00;;;;;;;32.25;12.27;;;8.60;99.90;;;;;;5029590;28;20076;-66
2022/11/30 01:00:26;;;;;;;36.30;13.43;;;8.60;99.90;;;;;;5028882;28;20029;-66
2022/11/30 01:02:55;;;;;;;37.60;11.77;;;8.60;99.90;;;;;;5028852;28;20022;-66
2022/11/30 01:05:21;;;;;;;36.47;12.30;;;8.60;99.90;;;;;;5029009;28;20023;-66
2022/11/30 01:07:47;;;;;;;28.90;10.98;;;8.60;99.90;;;;;;5028938;28;20374;-66
2022/11/30 01:10:12;;;;;;;31.85;12.68;;;8.60;99.90;;;;;;5029802;28;20108;-66
2022/11/30 01:12:38;;;;;;;28.65;11.85;;;8.50;99.90;;;;;;5029076;28;20026;-66
2022/11/30 01:15:04;;;;;;;29.65;11.60;;;8.50;99.90;;;;;;5028520;28;20373;-66
2022/11/30 01:17:29;;;;;;;28.48;11.10;;;8.50;99.90;;;;;;5032125;28;20097;-66
2022/11/30 01:19:55;;;;;;;34.53;12.25;;;8.50;99.90;;;;;;5017328;28;20040;-66
2022/11/30 01:22:20;;;;;;;27.98;12.27;;;8.50;99.90;;;;;;5017168;28;20101;-66
2022/11/30 01:24:46;;;;;;;32.15;12.18;;;8.30;99.90;;;;;;5032374;28;20029;-66
2022/11/30 01:27:11;;;;;;;29.95;12.20;;;8.20;99.90;;;;;;5032456;28;20036;-66
2022/11/30 01:29:37;;;;;;;31.65;12.32;;;8.20;99.90;;;;;;5032430;28;20030;-66
2022/11/30 01:32:03;;;;;;;24.35;11.30;;;8.30;99.90;;;;;;5017548;28;20026;-66
2022/11/30 01:34:29;;;;;;;28.55;11.90;;;8.30;99.90;;;;;;5016848;28;20036;-66
2022/11/30 01:36:54;;;;;;;26.95;11.68;;;8.30;99.90;;;;;;5032744;28;20030;-66
2022/11/30 01:39:20;;;;;;;34.03;12.60;;;8.30;99.90;;;;;;5015643;28;20029;-66
2022/11/30 01:41:45;;;;;;;35.38;12.13;;;8.30;99.90;;;;;;5032702;28;20018;-66
2022/11/30 01:44:14;;;;;;;28.10;11.48;;;8.40;99.90;;;;;;5032303;28;20062;-66
2022/11/30 01:46:43;;;;;;;33.72;12.48;;;8.30;99.90;;;;;;5032813;28;20424;-67
2022/11/30 01:49:09;;;;;;;26.40;11.57;;;8.30;99.90;;;;;;5017249;28;20036;-67
2022/11/30 01:51:46;;;;;;;31.55;12.65;;;8.20;99.90;;;;;;5032373;28;20022;-67
2022/11/30 01:54:16;;;;;;;32.08;11.23;;;8.20;99.90;;;;;;5031895;28;20025;-67
2022/11/30 01:56:52;;;;;;;35.03;12.20;;;8.20;99.90;;;;;;5016854;28;20025;-67
2022/11/30 01:59:20;;;;;;;26.83;12.23;;;8.20;99.90;;;;;;5016799;28;20047;-67
2022/11/30 02:01:46;;;;;;;29.88;12.20;;;8.20;99.90;;;;;;5032609;28;20018;-67
2022/11/30 02:04:26;;;;;;;27.98;11.75;;;8.20;99.90;;;;;;5031928;28;20076;-67
2022/11/30 02:06:52;;;;;;;32.35;11.43;;;8.20;99.90;;;;;;5031597;28;20029;-67
2022/11/30 02:09:20;;;;;;;24.70;10.88;;;8.20;99.90;;;;;;5016275;28;20072;-67
2022/11/30 02:11:46;;;;;;;30.25;12.05;;;8.10;99.90;;;;;;5032435;28;20084;-67
2022/11/30 02:14:33;;;;;;;27.08;10.82;;;8.10;99.90;;;;;;5015714;28;20053;-67
2022/11/30 02:17:22;;;;;;;26.58;11.85;;;8.10;99.90;;;;;;5031681;28;20022;-68
2022/11/30 02:19:57;;;;;;;28.85;11.73;;;8.10;99.90;;;;;;5016456;28;20065;-68
2022/11/30 02:22:41;;;;;;;31.05;11.52;;;8.10;99.90;;;;;;5031356;28;20018;-68
2022/11/30 02:25:25;;;;;;;33.55;12.95;;;8.20;99.90;;;;;;5016024;28;20416;-68
2022/11/30 02:28:16;;;;;;;31.15;13.10;;;8.20;99.90;;;;;;5030545;28;20484;-68
2022/11/30 02:30:48;;;;;;;27.85;11.73;;;8.30;99.90;;;;;;5016433;28;20064;-68
2022/11/30 02:33:18;;;;;;;32.20;13.00;;;8.30;99.90;;;;;;5014744;28;20029;-68
2022/11/30 02:35:48;;;;;;;36.50;12.43;;;8.30;99.90;;;;;;5031640;28;20030;-68
2022/11/30 02:38:17;;;;;;;31.25;12.38;;;8.30;99.90;;;;;;5014658;28;20025;-68
2022/11/30 02:40:43;;;;;;;31.83;13.45;;;8.30;99.90;;;;;;5031196;28;20036;-68
2022/11/30 02:43:08;;;;;;;30.48;12.45;;;8.30;99.90;;;;;;5030991;28;20022;-68
2022/11/30 02:45:52;;;;;;;31.10;12.85;;;8.30;99.90;;;;;;5015989;28;20025;-68
2022/11/30 02:48:59;;;;;;;39.92;13.43;;;8.30;99.90;;;;;;5031296;28;20124;-68
2022/11/30 02:51:28;;;;;;;38.50;13.00;;;8.30;99.90;;;;;;5015605;28;20029;-68
2022/11/30 02:53:54;;;;;;;33.95;11.55;;;8.30;99.90;;;;;;5015775;28;20030;-68
2022/11/30 02:56:21;;;;;;;28.63;11.70;;;8.30;99.90;;;;;;5030665;28;20076;-68
2022/11/30 02:58:47;;;;;;;37.58;13.38;;;8.30;99.90;;;;;;5031324;28;20034;-68
2022/11/30 03:01:12;;;;;;;35.97;12.95;;;8.30;99.90;;;;;;5030664;28;20022;-68
2022/11/30 03:03:38;;;;;;;31.02;11.80;;;8.30;99.90;;;;;;5014414;28;20026;-68
2022/11/30 03:06:04;;;;;;;36.38;12.75;;;8.30;99.90;;;;;;5030514;28;20121;-68
2022/11/30 03:08:29;;;;;;;35.90;12.77;;;8.30;99.90;;;;;;5030388;28;20032;-68
2022/11/30 03:10:55;;;;;;;33.83;12.15;;;8.30;99.90;;;;;;5015259;28;20052;-68
2022/11/30 03:13:20;;;;;;;33.42;13.07;;;8.20;99.90;;;;;;5030309;28;20034;-68
2022/11/30 03:15:46;;;;;;;34.08;12.98;;;8.20;99.90;;;;;;5030439;28;20033;-68
2022/11/30 03:18:12;;;;;;;34.63;13.35;;;8.20;99.90;;;;;;5030468;28;20053;-68
2022/11/30 03:20:42;;;;;;;35.03;13.88;;;8.20;99.90;;;;;;5013802;28;20119;-68
2022/11/30 03:23:07;;;;;;;31.52;11.98;;;8.20;99.90;;;;;;5030929;28;20018;-68
2022/11/30 03:25:33;;;;;;;35.40;13.48;;;8.30;99.90;;;;;;5014936;28;20025;-68
2022/11/30 03:28:00;;;;;;;36.33;13.20;;;8.30;99.90;;;;;;5014488;28;20089;-68
2022/11/30 03:30:25;;;;;;;37.58;13.05;;;8.30;99.90;;;;;;5014772;28;20067;-68
2022/11/30 03:32:51;;;;;;;32.15;12.55;;;8.30;99.90;;;;;;5029953;28;20120;-68
2022/11/30 03:35:17;;;;;;;38.83;13.27;;;8.30;99.90;;;;;;5031026;28;20041;-68
2022/11/30 03:37:43;;;;;;;39.83;12.77;;;8.30;99.90;;;;;;5029711;28;20601;-68
2022/11/30 03:40:10;;;;;;;35.88;13.85;;;8.30;99.90;;;;;;5029938;28;20128;-68
2022/11/30 03:42:36;;;;;;;37.22;12.70;;;8.30;99.90;;;;;;5029867;28;20022;-68
2022/11/30 03:45:01;;;;;;;28.20;12.90;;;8.20;99.90;;;;;;5013524;28;20030;-68
2022/11/30 03:47:27;;;;;;;39.83;13.57;;;8.20;99.90;;;;;;5014558;28;20059;-68
2022/11/30 03:49:52;;;;;;;33.10;12.32;;;8.20;99.90;;;;;;5014453;28;20117;-68
2022/11/30 03:52:18;;;;;;;42.03;12.77;;;8.20;99.90;;;;;;5029639;28;20022;-68
2022/11/30 03:54:43;;;;;;;35.80;13.30;;;8.20;99.90;;;;;;5029503;28;20034;-68
2022/11/30 03:57:09;;;;;;;46.58;16.02;;;8.30;99.90;;;;;;5029572;28;20038;-68
2022/11/30 03:59:34;;;;;;;36.58;13.00;;;8.30;99.90;;;;;;5029542;28;20053;-68
2022/11/30 04:02:00;;;;;;;41.35;13.82;;;8.30;99.90;;;;;;5014345;28;20064;-68
2022/11/30 04:04:25;;;;;;;43.40;14.02;;;8.30;99.90;;;;;;5014408;28;20021;-68
2022/11/30 04:06:51;;;;;;;36.05;13.98;;;8.40;99.90;;;;;;5029577;28;20026;-68
2022/11/30 04:09:16;;;;;;;36.17;13.18;;;8.30;99.90;;;;;;5013636;28;20041;-68
2022/11/30 04:11:42;;;;;;;37.65;11.95;;;8.30;99.90;;;;;;5029293;28;20026;-68
2022/11/30 04:14:08;;;;;;;51.70;13.93;;;8.30;99.90;;;;;;5029919;28;20030;-68
2022/11/30 04:16:34;;;;;;;41.03;13.73;;;8.30;99.90;;;;;;5029133;28;20022;-68
2022/11/30 04:19:00;;;;;;;38.83;13.73;;;8.40;99.90;;;;;;5029230;28;20022;-68
2022/11/30 04:21:25;;;;;;;40.10;13.48;;;8.50;99.90;;;;;;5014593;28;20017;-68
2022/11/30 04:23:51;;;;;;;42.78;13.70;;;8.50;99.90;;;;;;5029025;28;20022;-68
2022/11/30 04:26:17;;;;;;;39.83;12.02;;;8.60;99.90;;;;;;5013047;28;20018;-68
2022/11/30 04:28:43;;;;;;;43.47;13.10;;;8.60;99.90;;;;;;5029403;28;20030;-68
2022/11/30 04:31:09;;;;;;;38.35;13.57;;;8.60;99.90;;;;;;5029060;28;20037;-68
2022/11/30 04:33:35;;;;;;;38.75;12.85;;;8.70;99.90;;;;;;5028866;28;20026;-68
2022/11/30 04:36:03;;;;;;;38.22;13.50;;;8.70;99.90;;;;;;5029262;28;20120;-68
2022/11/30 04:38:29;;;;;;;37.45;12.82;;;8.70;99.90;;;;;;5013826;28;20036;-68
2022/11/30 04:40:55;;;;;;;37.03;13.05;;;8.70;99.90;;;;;;5013715;28;20021;-68
2022/11/30 04:43:21;;;;;;;42.05;13.50;;;8.70;99.90;;;;;;5029219;28;20037;-68
2022/11/30 04:45:47;;;;;;;37.63;13.93;;;8.70;99.90;;;;;;5029541;28;20053;-69
2022/11/30 04:48:14;;;;;;;39.53;14.27;;;8.70;99.90;;;;;;5029346;28;20022;-69
2022/11/30 04:50:39;;;;;;;37.00;13.23;;;8.60;99.90;;;;;;5013936;28;20056;-69
2022/11/30 04:53:05;;;;;;;42.08;13.73;;;8.50;99.90;;;;;;5028682;28;20124;-68
2022/11/30 04:55:31;;;;;;;39.97;13.98;;;8.50;99.90;;;;;;5028741;28;20030;-68
2022/11/30 04:57:57;;;;;;;38.15;12.80;;;8.50;99.90;;;;;;5029026;28;20022;-69
2022/11/30 05:00:22;;;;;;;40.25;12.77;;;8.50;99.90;;;;;;5029004;28;20056;-69
2022/11/30 05:02:48;;;;;;;35.53;14.93;;;8.50;99.90;;;;;;5029043;28;20018;-69
2022/11/30 05:05:14;;;;;;;38.92;13.35;;;8.60;99.90;;;;;;5028901;28;20022;-69
2022/11/30 05:07:39;;;;;;;41.72;12.38;;;8.70;99.90;;;;;;5028650;28;20034;-69
2022/11/30 05:10:07;;;;;;;45.08;15.48;;;8.70;99.90;;;;;;5028976;28;20033;-69
2022/11/30 05:12:33;;;;;;;41.47;12.80;;;8.70;99.90;;;;;;5028583;28;20029;-69
2022/11/30 05:14:58;;;;;;;46.65;14.15;;;8.80;99.90;;;;;;5013586;28;20029;-69
2022/11/30 05:17:24;;;;;;;47.90;14.80;;;8.80;99.90;;;;;;5029373;28;20100;-70
2022/11/30 05:19:49;;;;;;;43.63;15.63;;;8.80;99.90;;;;;;5013195;28;20060;-70
2022/11/30 05:22:15;;;;;;;47.47;13.57;;;8.70;99.90;;;;;;5028510;28;20022;-67
2022/11/30 05:24:41;;;;;;;47.10;14.15;;;8.70;99.90;;;;;;5011986;28;20125;-68
2022/11/30 05:27:07;;;;;;;45.10;14.63;;;8.70;99.90;;;;;;5013169;28;20069;-68
2022/11/30 05:29:34;;;;;;;43.40;14.13;;;8.70;99.90;;;;;;5029302;28;20033;-68
2022/11/30 05:32:00;;;;;;;44.35;15.93;;;8.60;99.90;;;;;;5028373;28;20037;-68
2022/11/30 05:34:25;;;;;;;46.42;14.32;;;8.50;99.90;;;;;;5028625;28;20036;-68
2022/11/30 05:36:51;;;;;;;50.78;15.18;;;8.50;99.90;;;;;;5013286;28;20100;-68
2022/11/30 05:39:16;;;;;;;46.85;14.65;;;8.40;99.90;;;;;;5028699;28;20022;-68
2022/11/30 05:41:42;;;;;;;50.53;15.10;;;8.40;99.90;;;;;;5029103;28;20024;-68
2022/11/30 05:44:07;;;;;;;50.13;15.38;;;8.40;99.90;;;;;;5012906;28;20036;-68
2022/11/30 05:46:33;;;;;;;43.88;14.38;;;8.40;99.90;;;;;;5013006;28;20125;-68
2022/11/30 05:48:58;;;;;;;45.42;13.90;;;8.30;99.90;;;;;;5028236;28;20050;-68
2022/11/30 05:51:24;;;;;;;45.08;13.90;;;8.30;99.90;;;;;;5013569;28;20061;-68
2022/11/30 05:53:49;;;;;;;53.22;14.77;;;8.20;99.90;;;;;;5028430;28;20112;-68
2022/11/30 05:56:17;;;;;;;48.60;16.27;;;8.20;99.90;;;;;;5028217;28;20065;-69
2022/11/30 05:58:44;;;;;;;42.95;14.85;;;8.20;99.90;;;;;;5012892;28;20030;-69
2022/11/30 06:01:22;;;;;;;50.78;15.45;;;8.20;99.90;;;;;;5028213;28;20026;-69
2022/11/30 06:03:48;;;;;;;52.67;17.02;;;8.20;99.90;;;;;;5013793;28;20022;-69
2022/11/30 06:06:13;;;;;;;47.45;14.52;;;8.20;99.90;;;;;;5016648;28;20024;-69
2022/11/30 06:08:39;;;;;;;46.45;16.02;;;8.20;99.90;;;;;;5016025;28;20026;-69
2022/11/30 06:11:04;;;;;;;52.95;15.07;;;8.20;99.90;;;;;;5016676;28;20066;-69
2022/11/30 06:13:31;;;;;;;57.83;16.45;;;8.20;99.90;;;;;;5016162;28;20026;-69
2022/11/30 06:16:04;;;;;;;51.90;15.27;;;8.30;99.90;;;;;;5016072;28;20033;-68
2022/11/30 06:18:30;;;;;;;51.78;15.13;;;8.40;99.90;;;;;;5031598;28;20037;-69
2022/11/30 06:21:04;;;;;;;49.97;14.55;;;8.40;99.90;;;;;;5031518;28;20022;-68
2022/11/30 06:23:31;;;;;;;48.22;15.63;;;8.50;99.90;;;;;;5015976;28;20054;-68
2022/11/30 06:25:57;;;;;;;50.47;15.63;;;8.60;99.90;;;;;;5031384;28;20381;-68
2022/11/30 06:28:23;;;;;;;54.03;17.77;;;8.60;99.90;;;;;;5016212;28;20022;-68
2022/11/30 06:30:49;;;;;;;41.47;15.30;;;8.70;99.90;;;;;;5015891;28;20026;-68
2022/11/30 06:33:15;;;;;;;46.53;15.35;;;8.70;99.90;;;;;;5031038;28;20109;-68
2022/11/30 06:35:45;;;;;;;56.70;15.57;;;8.70;99.90;;;;;;5031212;28;20026;-68
2022/11/30 06:38:11;;;;;;;47.30;15.52;;;8.70;99.90;;;;;;5016051;28;20029;-68
2022/11/30 06:40:37;;;;;;;46.10;15.35;;;8.60;99.90;;;;;;5031923;28;20064;-68
2022/11/30 06:43:02;;;;;;;52.08;15.13;;;8.60;99.90;;;;;;5030795;28;20025;-68
2022/11/30 06:45:28;;;;;;;46.53;16.75;;;8.60;99.90;;;;;;5031205;28;20055;-69
2022/11/30 06:47:55;;;;;;;43.38;15.40;;;8.60;99.90;;;;;;5031171;28;20068;-69
2022/11/30 06:50:21;;;;;;;52.05;17.38;;;8.60;99.90;;;;;;5030941;28;20095;-69
2022/11/30 06:52:46;;;;;;;53.47;16.67;;;8.70;99.90;;;;;;5030773;28;20026;-69
2022/11/30 06:55:12;;;;;;;52.67;15.95;;;8.70;99.90;;;;;;5030758;28;20053;-69
2022/11/30 06:57:38;;;;;;;42.53;15.40;;;8.50;99.90;;;;;;5031591;28;20026;-69
2022/11/30 07:00:04;;;;;;;50.40;16.30;;;8.50;99.90;;;;;;5015527;28;20393;-69
2022/11/30 07:02:29;;;;;;;49.75;15.55;;;8.40;99.90;;;;;;5030572;28;20025;-69
2022/11/30 07:04:55;;;;;;;47.17;16.10;;;8.30;99.90;;;;;;5015187;28;20026;-69
2022/11/30 07:07:21;;;;;;;49.92;17.05;;;8.30;99.90;;;;;;5014238;28;20026;-69
2022/11/30 07:09:46;;;;;;;47.10;15.77;;;8.30;99.90;;;;;;5030827;28;20036;-69
2022/11/30 07:12:12;;;;;;;53.58;18.35;;;8.30;99.90;;;;;;5030725;28;20022;-69
2022/11/30 07:14:37;;;;;;;49.67;17.15;;;8.30;99.90;;;;;;5029992;28;20026;-69
2022/11/30 07:17:03;;;;;;;49.10;16.85;;;8.30;99.90;;;;;;5013778;28;20052;-69
2022/11/30 07:19:30;;;;;;;60.35;17.75;;;8.30;99.90;;;;;;5031059;28;20025;-69
2022/11/30 07:21:55;;;;;;;50.83;16.00;;;8.30;99.90;;;;;;5030201;28;20026;-69
2022/11/30 07:27:06;;;;;;;53.40;16.38;;;8.30;99.90;;;;;;5015509;28;20036;-69
2022/11/30 07:29:31;;;;;;;56.17;17.35;;;8.20;99.90;;;;;;5030381;28;20105;-69
2022/11/30 07:31:57;;;;;;;52.70;15.63;;;8.30;99.90;;;;;;5014851;28;20393;-69
2022/11/30 07:34:22;;;;;;;57.65;17.50;;;8.30;99.90;;;;;;5029975;28;20022;-69
2022/11/30 07:36:48;;;;;;;50.83;15.57;;;8.40;99.90;;;;;;5014990;28;20022;-68
2022/11/30 07:39:14;;;;;;;51.92;16.10;;;8.40;99.90;;;;;;5030250;28;20052;-68
2022/11/30 07:41:40;;;;;;;53.92;15.00;;;8.50;99.90;;;;;;5014662;28;20032;-68
2022/11/30 07:44:07;;;;;;;47.58;15.20;;;8.60;99.90;;;;;;5029523;28;20569;-68
2022/11/30 07:46:35;;;;;;;44.70;15.77;;;8.60;99.90;;;;;;5030632;28;20044;-68
2022/11/30 07:49:09;;;;;;;42.55;16.42;;;8.60;99.90;;;;;;5029988;28;20030;-68
2022/11/30 07:51:35;;;;;;;41.55;14.48;;;8.60;99.90;;;;;;5014800;28;20033;-68
2022/11/30 07:54:01;;;;;;;44.78;14.50;;;8.60;99.90;;;;;;5014663;28;20033;-69
2022/11/30 07:56:28;;;;;;;44.38;15.85;;;8.70;99.90;;;;;;5014302;28;20030;-68
2022/11/30 07:58:56;;;;;;;39.63;14.25;;;8.70;99.90;;;;;;5029375;28;20029;-68
2022/11/30 08:01:24;;;;;;;45.40;15.80;;;8.70;99.90;;;;;;5014996;28;20026;-68
2022/11/30 08:03:50;;;;;;;45.70;15.00;;;8.60;99.90;;;;;;5029666;28;20057;-68
2022/11/30 08:06:22;;;;;;;42.83;15.35;;;8.70;99.90;;;;;;5029855;28;20025;-68
2022/11/30 08:08:49;;;;;;;37.78;13.73;;;8.70;99.90;;;;;;5014515;28;20072;-68
2022/11/30 08:11:17;;;;;;;31.58;12.13;;;8.80;99.90;;;;;;5014141;28;20034;-69
2022/11/30 08:13:44;;;;;;;31.20;12.30;;;8.80;99.90;;;;;;5014339;28;20030;-69
2022/11/30 08:16:14;;;;;;;32.65;12.25;;;8.80;99.90;;;;;;5029308;28;20029;-69
2022/11/30 08:18:41;;;;;;;27.90;10.82;;;8.80;99.90;;;;;;5013975;28;20571;-69
2022/11/30 08:21:08;;;;;;;32.00;12.35;;;8.80;99.90;;;;;;5013916;28;20477;-69
2022/11/30 08:23:40;;;;;;;29.58;11.38;;;8.80;99.90;;;;;;5029106;28;20037;-69
2022/11/30 08:26:11;;;;;;;33.53;11.75;;;8.80;99.90;;;;;;5013337;28;20033;-69
2022/11/30 08:28:37;;;;;;;35.65;11.82;;;8.80;99.90;;;;;;5012609;28;20037;-69
2022/11/30 08:31:09;;;;;;;29.05;12.05;;;8.90;99.90;;;;;;5013843;28;20033;-69
2022/11/30 08:33:36;;;;;;;35.42;11.15;;;8.80;99.90;;;;;;5029276;28;20053;-69
2022/11/30 08:36:21;;;;;;;22.83;10.25;;;8.80;99.90;;;;;;5029328;28;20145;-69
2022/11/30 08:38:47;;;;;;;30.52;11.00;;;8.80;99.90;;;;;;5014464;28;20488;-69
2022/11/30 08:41:16;;;;;;;23.70;10.25;;;8.70;99.90;;;;;;5013730;28;20022;-69
2022/11/30 08:43:41;;;;;;;33.20;10.68;;;8.60;99.90;;;;;;5013606;28;20030;-69
2022/11/30 08:46:09;;;;;;;27.33;11.27;;;8.60;99.90;;;;;;5028953;28;20029;-69
2022/11/30 08:48:35;;;;;;;33.35;10.85;;;8.70;99.90;;;;;;5028879;28;20061;-69
2022/11/30 08:51:04;;;;;;;26.83;11.00;;;8.70;99.90;;;;;;5013956;28;20061;-69
2022/11/30 08:53:30;;;;;;;32.15;11.93;;;8.80;99.90;;;;;;5013814;28;20037;-69
2022/11/30 08:56:05;;;;;;;28.20;11.40;;;8.90;99.90;;;;;;5028739;28;20030;-69
2022/11/30 08:58:34;;;;;;;32.15;11.07;;;9.00;99.90;;;;;;5012347;28;20037;-69
2022/11/30 09:01:15;;;;;;;30.60;11.13;;;9.10;99.90;;;;;;5029304;28;20092;-69
2022/11/30 09:03:42;;;;;;;40.80;11.98;;;9.10;99.90;;;;;;5028804;28;20026;-69
2022/11/30 09:06:14;;;;;;;33.78;12.82;;;9.10;99.90;;;;;;5029533;28;20036;-69
2022/11/30 09:08:41;;;;;;;28.77;10.38;;;9.20;99.90;;;;;;5013669;28;20029;-69
2022/11/30 09:11:18;;;;;;;22.48;9.90;;;9.20;99.90;;;;;;5028667;28;20041;-69
2022/11/30 09:13:45;;;;;;;29.88;11.48;;;9.30;99.90;;;;;;5028607;28;20076;-69
2022/11/30 09:16:11;;;;;;;29.25;10.38;;;9.30;99.90;;;;;;5013409;28;20044;-69
2022/11/30 09:18:37;;;;;;;23.30;10.88;;;9.30;99.90;;;;;;5028495;28;20084;-69
2022/11/30 09:21:09;;;;;;;29.70;11.50;;;9.30;99.90;;;;;;5013654;28;20018;-69
2022/11/30 09:23:35;;;;;;;39.55;11.60;;;9.30;99.90;;;;;;5013119;28;20101;-69
2022/11/30 09:26:04;;;;;;;31.48;10.90;;;9.30;99.90;;;;;;5013208;28;20033;-69
2022/11/30 09:28:30;;;;;;;33.63;11.25;;;9.30;99.90;;;;;;5011933;28;20021;-69
2022/11/30 09:31:04;;;;;;;30.45;12.25;;;9.30;99.90;;;;;;5013461;28;20026;-69
2022/11/30 09:33:30;;;;;;;32.78;12.57;;;9.30;99.90;;;;;;5028420;28;20484;-69
2022/11/30 09:36:03;;;;;;;31.23;12.45;;;9.30;99.90;;;;;;5012805;28;20129;-70
2022/11/30 09:38:29;;;;;;;30.10;13.40;;;9.30;99.90;;;;;;5015177;28;20052;-69
2022/11/30 09:40:57;;;;;;;35.85;13.98;;;9.30;99.90;;;;;;5032119;28;20021;-69
2022/11/30 09:43:49;;;;;;;35.10;13.95;;;9.40;99.90;;;;;;5031899;28;20022;-69
2022/11/30 09:46:14;;;;;;;31.80;13.00;;;9.40;99.90;;;;;;5016119;28;20133;-69
2022/11/30 09:48:58;;;;;;;43.08;14.20;;;9.40;99.90;;;;;;5015509;28;20501;-69
2022/11/30 09:51:46;;;;;;;37.17;14.52;;;9.50;99.90;;;;;;5031955;28;20033;-69
2022/11/30 09:54:34;;;;;;;33.72;13.40;;;9.50;99.90;;;;;;5016903;28;20037;-69
2022/11/30 09:57:11;;;;;;;31.75;11.85;;;9.50;99.90;;;;;;5017007;28;20037;-68
2022/11/30 09:59:37;;;;;;;36.00;12.90;;;9.50;99.90;;;;;;5016629;28;20030;-69
2022/11/30 10:02:14;;;;;;;39.75;14.07;;;9.40;99.90;;;;;;5015311;28;20408;-69
2022/11/30 10:04:40;;;;;;;32.58;12.00;;;9.40;99.90;;;;;;5015855;28;20022;-69
2022/11/30 10:07:25;;;;;;;33.35;13.05;;;9.50;99.90;;;;;;5016363;28;20032;-69
2022/11/30 10:09:53;;;;;;;31.58;12.00;;;9.40;99.90;;;;;;5031653;28;20120;-69
2022/11/30 10:12:38;;;;;;;29.05;11.60;;;9.50;99.90;;;;;;5031924;28;20059;-69
2022/11/30 10:15:35;;;;;;;28.08;11.63;;;9.50;99.90;;;;;;5031458;28;20033;-69
2022/11/30 10:18:13;;;;;;;27.52;10.73;;;9.50;99.90;;;;;;5014946;28;20117;-69
2022/11/30 10:20:54;;;;;;;32.65;12.40;;;9.50;99.90;;;;;;5016936;28;20022;-69
2022/11/30 10:23:49;;;;;;;30.98;11.90;;;9.40;99.90;;;;;;5016429;28;20022;-69
2022/11/30 10:26:20;;;;;;;32.95;13.55;;;9.50;99.90;;;;;;5031364;28;20501;-69
2022/11/30 10:28:54;;;;;;;30.80;11.80;;;9.50;99.90;;;;;;5014851;28;20029;-69
2022/11/30 10:31:33;;;;;;;29.55;12.63;;;9.50;99.90;;;;;;5031140;28;20111;-69
2022/11/30 10:34:17;;;;;;;28.35;11.70;;;9.50;99.90;;;;;;5031986;28;20117;-69
2022/11/30 10:37:00;;;;;;;31.75;11.50;;;9.60;99.90;;;;;;5031165;28;20029;-69
2022/11/30 10:39:33;;;;;;;30.38;11.77;;;9.60;99.90;;;;;;5015824;28;20056;-69
2022/11/30 10:42:25;;;;;;;31.23;12.00;;;9.60;99.90;;;;;;5016205;28;20433;-69
2022/11/30 10:45:10;;;;;;;27.27;11.25;;;9.70;99.90;;;;;;5039912;22;20039;-67
2022/11/30 10:47:40;;;;;;;29.38;11.32;;;9.70;99.90;;;;;;5014524;28;20037;-67
2022/11/30 10:50:07;;;;;;;32.25;11.60;;;9.70;99.90;;;;;;5014924;28;20093;-68
2022/11/30 10:52:46;;;;;;;27.63;11.82;;;9.70;99.90;;;;;;5031459;28;20033;-67
2022/11/30 10:55:17;;;;;;;29.08;12.93;;;9.70;99.90;;;;;;5015552;28;20025;-67
2022/11/30 10:57:44;;;;;;;29.58;13.95;;;9.80;99.90;;;;;;5015544;28;20022;-67
2022/11/30 11:00:15;;;;;;;27.50;10.73;;;9.70;99.90;;;;;;5015508;28;20033;-67
2022/11/30 11:02:44;;;;;;;25.60;13.07;;;9.70;99.90;;;;;;5014452;28;20018;-67
2022/11/30 11:05:13;;;;;;;27.48;10.98;;;9.70;99.90;;;;;;5014182;28;20053;-67
2022/11/30 11:08:00;;;;;;;25.73;10.05;;;9.70;99.90;;;;;;5015586;28;20025;-67
2022/11/30 11:10:46;;;;;;;31.77;11.70;;;9.70;99.90;;;;;;5015526;28;20104;-67
2022/11/30 11:13:16;;;;;;;23.17;10.52;;;9.70;99.90;;;;;;5013906;28;20030;-67
2022/11/30 11:15:56;;;;;;;27.50;10.55;;;9.80;99.90;;;;;;5014022;28;20034;-67
2022/11/30 11:18:25;;;;;;;25.90;10.55;;;9.80;99.90;;;;;;5015334;28;20038;-67
2022/11/30 11:21:10;;;;;;;24.88;10.98;;;9.80;99.90;;;;;;5014990;28;20018;-67
2022/11/30 11:23:39;;;;;;;27.80;10.18;;;9.80;99.90;;;;;;5004819;28;20037;-67
2022/11/30 11:26:07;;;;;;;26.95;10.25;;;9.80;99.90;;;;;;5014908;28;20022;-67
2022/11/30 11:28:42;;;;;;;27.83;10.93;;;9.80;99.90;;;;;;5014809;28;20036;-67
2022/11/30 11:31:47;;;;;;;29.40;10.52;;;9.80;99.90;;;;;;5014343;28;20096;-67
2022/11/30 11:34:25;;;;;;;29.23;11.75;;;9.80;99.90;;;;;;5013553;28;20026;-67
2022/11/30 11:37:13;;;;;;;27.30;10.77;;;9.80;99.90;;;;;;5014710;28;20029;-67
2022/11/30 11:39:38;;;;;;;25.83;11.70;;;9.80;99.90;;;;;;5014361;28;20061;-67
2022/11/30 11:42:04;;;;;;;24.88;9.82;;;9.80;99.90;;;;;;5013441;28;20524;-67
2022/11/30 11:44:30;;;;;;;24.95;9.80;;;9.80;99.90;;;;;;5013499;28;20123;-67
2022/11/30 11:47:06;;;;;;;24.67;11.55;;;9.70;99.90;;;;;;5014621;28;20156;-67
2022/11/30 11:49:34;;;;;;;24.45;10.13;;;9.70;99.90;;;;;;5013645;28;20021;-67
2022/11/30 11:52:13;;;;;;;25.63;10.48;;;9.70;99.90;;;;;;5013230;28;20560;-67
2022/11/30 11:54:43;;;;;;;27.60;10.32;;;9.60;99.90;;;;;;5014392;28;20036;-67
2022/11/30 11:57:13;;;;;;;27.00;9.70;;;9.70;99.90;;;;;;5014083;28;21980;-67
2022/11/30 12:00:04;;;;;;;30.42;10.82;;;9.70;99.90;;;;;;5014336;28;20397;-67
2022/11/30 12:02:38;;;;;;;26.17;10.73;;;9.70;99.90;;;;;;5014078;28;20022;-67
2022/11/30 12:05:25;;;;;;;27.48;12.07;;;9.70;99.90;;;;;;5012982;28;20053;-67
2022/11/30 12:08:00;;;;;;;22.90;10.55;;;9.80;99.90;;;;;;5014183;28;20022;-67
2022/11/30 12:10:55;;;;;;;23.85;9.75;;;9.80;99.90;;;;;;5014159;28;20370;-67
2022/11/30 12:13:26;;;;;;;26.10;10.05;;;9.90;99.90;;;;;;5013654;28;20052;-67
2022/11/30 12:16:10;;;;;;;27.27;10.93;;;9.80;99.90;;;;;;5013682;28;20036;-67
2022/11/30 12:19:04;;;;;;;26.27;10.25;;;9.80;99.90;;;;;;5012676;28;20477;-67
2022/11/30 12:21:33;;;;;;;26.52;9.55;;;9.80;99.90;;;;;;5012756;28;20022;-67
2022/11/30 12:24:24;;;;;;;23.10;9.57;;;9.80;99.90;;;;;;5013855;28;20050;-67
2022/11/30 12:27:04;;;;;;;28.88;10.38;;;9.80;99.90;;;;;;5012752;28;20033;-67
2022/11/30 12:29:44;;;;;;;26.55;10.05;;;9.80;99.90;;;;;;5012625;28;20025;-67
2022/11/30 12:32:45;;;;;;;27.13;10.75;;;9.80;99.90;;;;;;5012587;28;20018;-67
2022/11/30 12:35:28;;;;;;;28.23;10.80;;;9.80;99.90;;;;;;5013319;28;20022;-67
2022/11/30 12:38:22;;;;;;;24.27;10.15;;;9.90;99.90;;;;;;5012498;28;20033;-67
2022/11/30 12:41:17;;;;;;;22.83;9.43;;;9.90;99.90;;;;;;5013995;28;20022;-67
2022/11/30 12:44:08;;;;;;;21.65;9.05;;;9.90;99.90;;;;;;5013732;28;20076;-67
2022/11/30 12:46:58;;;;;;;26.77;9.35;;;10.00;99.90;;;;;;5012432;28;20022;-67
2022/11/30 12:49:45;;;;;;;25.48;9.80;;;10.00;99.90;;;;;;5011955;28;20101;-67
2022/11/30 12:52:32;;;;;;;25.67;9.93;;;10.00;99.90;;;;;;5013908;28;20070;-67
2022/11/30 12:55:36;;;;;;;22.92;9.90;;;9.90;99.90;;;;;;5013531;28;20389;-67
2022/11/30 12:58:19;;;;;;;25.77;10.27;;;10.00;99.90;;;;;;4972386;28;20062;-67